Time;durP1;ratioP1;P1;durP2;ratioP2;P2;SDS_P1;SDS_P2;PMS_P1;PMS_P2;Temp;Humidity;BMP_temperature;BMP_pressure;BME280_temperature;BME280_humidity;BME280_pressure;Samples;Min_cycle;Max_cycle;Signal;HPM_P1;HPM_P2
2023/02/24 00:05:48;;;;;;;26.1;19.2;;;;;;;8.2;76.6;98160;;;;
2023/02/24 00:16:47;;;;;;;26.1;19.3;;;;;;;8.2;76.7;98150;;;;
2023/02/24 00:27:47;;;;;;;24.7;19.3;;;;;;;8.2;76.5;98140;;;;
2023/02/24 00:37:50;;;;;;;24.7;19.3;;;;;;;8.2;76.5;98130;;;;
2023/02/24 00:48:47;;;;;;;19.5;16.4;;;;;;;8.3;76.3;98120;;;;
2023/02/24 00:58:47;;;;;;;19.5;16.4;;;;;;;8.3;76.4;98110;;;;
2023/02/24 01:08:48;;;;;;;19.5;16.4;;;;;;;8.5;75.9;98100;;;;
2023/02/24 01:18:47;;;;;;;22.5;16.8;;;;;;;8.6;75.6;98090;;;;
2023/02/24 01:29:47;;;;;;;22.5;16.8;;;;;;;8.7;75;98080;;;;
2023/02/24 01:39:47;;;;;;;22.5;16.8;;;;;;;8.7;75.2;98060;;;;
2023/02/24 01:49:47;;;;;;;20.6;16.9;;;;;;;8.7;75.1;98050;;;;
2023/02/24 02:00:47;;;;;;;20.6;16.9;;;;;;;8.8;75;98050;;;;
2023/02/24 02:10:48;;;;;;;20.6;16.9;;;;;;;8.8;74.6;98040;;;;
2023/02/24 02:21:47;;;;;;;21.2;15.5;;;;;;;8.8;74.7;98030;;;;
2023/02/24 02:32:50;;;;;;;21.2;15.5;;;;;;;9;74;98020;;;;
2023/02/24 02:42:47;;;;;;;21.2;15.5;;;;;;;9.1;73.5;98010;;;;
2023/02/24 02:53:48;;;;;;;20.2;14.5;;;;;;;9.2;73.4;98000;;;;
2023/02/24 03:04:49;;;;;;;20.2;14.5;;;;;;;9.2;73.3;98000;;;;
2023/02/24 03:14:49;;;;;;;20.2;14.5;;;;;;;9.2;74.3;98000;;;;
2023/02/24 03:25:47;;;;;;;14;11.1;;;;;;;9;75.7;97990;;;;
2023/02/24 03:36:47;;;;;;;14;11.1;;;;;;;8.8;77;97990;;;;
2023/02/24 03:47:47;;;;;;;12.8;9.4;;;;;;;8.6;78.2;97970;;;;
2023/02/24 03:58:47;;;;;;;12.8;9.4;;;;;;;8.5;78.8;97960;;;;
2023/02/24 04:09:49;;;;;;;12.8;9.4;;;;;;;8.3;80.6;97940;;;;
2023/02/24 04:19:47;;;;;;;13.5;10.6;;;;;;;8.2;81.2;97930;;;;
2023/02/24 04:29:47;;;;;;;13.5;10.6;;;;;;;8.1;81.9;97910;;;;
2023/02/24 04:40:48;;;;;;;13.5;10.6;;;;;;;8;82.7;97910;;;;
2023/02/24 04:51:47;;;;;;;15.6;11.3;;;;;;;8;82.9;97900;;;;
2023/02/24 05:01:50;;;;;;;15.6;11.3;;;;;;;8;82.9;97880;;;;
2023/02/24 05:11:47;;;;;;;15.6;11.3;;;;;;;7.9;83;97880;;;;
2023/02/24 05:21:47;;;;;;;13.5;10.1;;;;;;;7.9;83.3;97870;;;;
2023/02/24 05:32:47;;;;;;;13.5;10.1;;;;;;;7.9;83.4;97870;;;;
2023/02/24 05:42:47;;;;;;;13.5;10.1;;;;;;;7.9;83.9;97860;;;;
2023/02/24 05:52:47;;;;;;;11.4;8.8;;;;;;;7.8;84.4;97860;;;;
2023/02/24 06:03:48;;;;;;;11.4;8.8;;;;;;;7.7;84.6;97840;;;;
2023/02/24 06:14:47;;;;;;;11.4;8.8;;;;;;;7.7;85;97830;;;;
2023/02/24 06:24:48;;;;;;;14.5;10.3;;;;;;;7.7;85.4;97820;;;;
2023/02/24 06:34:47;;;;;;;14.5;10.3;;;;;;;7.8;85.1;97810;;;;
2023/02/24 06:45:48;;;;;;;14.5;10.3;;;;;;;7.8;84.7;97800;;;;
2023/02/24 06:55:47;;;;;;;14.7;9.8;;;;;;;7.9;84.2;97790;;;;
2023/02/24 07:06:50;;;;;;;14.7;9.8;;;;;;;8;83.3;97790;;;;
2023/02/24 07:16:52;;;;;;;14.8;10.2;;;;;;;8.2;82.2;97780;;;;
2023/02/24 07:26:50;;;;;;;14.8;10.2;;;;;;;8.3;81.5;97770;;;;
2023/02/24 07:37:47;;;;;;;14.8;10.2;;;;;;;8.5;81.5;97760;;;;
2023/02/24 07:47:48;;;;;;;15.6;9.5;;;;;;;8.8;80.7;97750;;;;
2023/02/24 07:58:49;;;;;;;15.6;9.5;;;;;;;8.8;79.9;97740;;;;
2023/02/24 08:09:15;;;;;;;15.6;9.5;;;;;;;9.1;79.3;97730;;;;
2023/02/24 08:18:47;;;;;;;11.2;8.6;;;;;;;9.3;78.5;97730;;;;
2023/02/24 08:30:03;;;;;;;11.2;8.6;;;;;;;9.5;76.9;97720;;;;
2023/02/24 08:39:52;;;;;;;11.2;8.6;;;;;;;9.7;76.9;97710;;;;
2023/02/24 08:50:47;;;;;;;9.3;6.5;;;;;;;9.6;75.5;97700;;;;
2023/02/24 09:01:53;;;;;;;9.3;6.5;;;;;;;9.9;75.2;97700;;;;
2023/02/24 09:11:48;;;;;;;9.3;6.5;;;;;;;10.2;74.5;97690;;;;
2023/02/24 09:22:30;;;;;;;7.8;5.4;;;;;;;10.1;74.1;97680;;;;
2023/02/24 09:31:54;;;;;;;7.8;5.4;;;;;;;10;74.2;97670;;;;
2023/02/24 09:41:55;;;;;;;7.8;5.4;;;;;;;10.2;74.5;97660;;;;
2023/02/24 09:51:59;;;;;;;10.9;8.1;;;;;;;10.3;74.1;97650;;;;
2023/02/24 10:02:58;;;;;;;10.9;8.1;;;;;;;10.4;73.5;97640;;;;
2023/02/24 10:12:47;;;;;;;10.9;8.1;;;;;;;10.6;73.7;97630;;;;
2023/02/24 10:22:49;;;;;;;13.6;9.9;;;;;;;10.8;73;97620;;;;
2023/02/24 10:32:47;;;;;;;13.6;9.9;;;;;;;11;72;97610;;;;
2023/02/24 10:42:48;;;;;;;13.6;9.9;;;;;;;11.2;71.4;97580;;;;
2023/02/24 10:54:08;;;;;;;13.1;9.7;;;;;;;11.5;70.2;97550;;;;
2023/02/24 11:05:03;;;;;;;13.1;9.7;;;;;;;11.8;70.4;97540;;;;
2023/02/24 11:25:48;;;;;;;12.5;10.2;;;;;;;13;67;97480;;;;
2023/02/24 11:35:48;;;;;;;12.5;10.2;;;;;;;13.1;67.4;97470;;;;
2023/02/24 11:46:48;;;;;;;20.1;11.1;;;;;;;13.3;67.2;97460;;;;
2023/02/24 11:56:48;;;;;;;20.1;11.1;;;;;;;13.7;64.6;97430;;;;
2023/02/24 12:07:49;;;;;;;20.1;11.1;;;;;;;13.2;65.2;97430;;;;
2023/02/24 12:17:48;;;;;;;11.3;8.6;;;;;;;13.1;65.7;97430;;;;
2023/02/24 12:28:48;;;;;;;11.3;8.6;;;;;;;13.1;65.2;97420;;;;
2023/02/24 12:39:48;;;;;;;11.3;8.6;;;;;;;12.7;65.8;97410;;;;
2023/02/24 12:49:48;;;;;;;11.5;7.7;;;;;;;12.5;66.4;97410;;;;
2023/02/24 12:59:48;;;;;;;11.5;7.7;;;;;;;12;67;97390;;;;
2023/02/24 13:09:48;;;;;;;11.5;7.7;;;;;;;11.8;68.6;97370;;;;
2023/02/24 13:20:49;;;;;;;15.6;9.2;;;;;;;12.3;68.3;97370;;;;
2023/02/24 13:31:48;;;;;;;15.6;9.2;;;;;;;12.4;66.5;97350;;;;
2023/02/24 13:42:48;;;;;;;15.6;9.2;;;;;;;12.5;66.2;97330;;;;
2023/02/24 13:53:49;;;;;;;10.9;8.5;;;;;;;12.3;66.1;97330;;;;
2023/02/24 14:03:48;;;;;;;10.9;8.5;;;;;;;11.9;67.5;97320;;;;
2023/02/24 14:13:48;;;;;;;10.9;8.5;;;;;;;11.8;67.8;97300;;;;
2023/02/24 14:24:48;;;;;;;13;9.3;;;;;;;11.7;66.4;97300;;;;
2023/02/24 14:34:48;;;;;;;13;9.3;;;;;;;11.7;66.7;97280;;;;
2023/02/24 14:44:48;;;;;;;13;9.3;;;;;;;11.4;67.7;97260;;;;
2023/02/24 14:55:48;;;;;;;11.9;8.1;;;;;;;11.1;68.5;97230;;;;
2023/02/24 15:06:48;;;;;;;11.9;8.1;;;;;;;10.8;69;97220;;;;
2023/02/24 15:17:48;;;;;;;11.2;6.9;;;;;;;10.7;69.3;97220;;;;
2023/02/24 15:27:48;;;;;;;11.2;6.9;;;;;;;10.6;69.7;97210;;;;
2023/02/24 15:37:48;;;;;;;11.2;6.9;;;;;;;10.5;69.9;97210;;;;
2023/02/24 15:48:48;;;;;;;14;8.8;;;;;;;10.2;74.2;97240;;;;
2023/02/24 15:59:48;;;;;;;14;8.8;;;;;;;9.9;78;97230;;;;
2023/02/24 16:10:49;;;;;;;14;8.8;;;;;;;9.4;78.9;97210;;;;
2023/02/24 16:20:53;;;;;;;16.2;12;;;;;;;9.1;79.8;97180;;;;
2023/02/24 16:31:48;;;;;;;16.2;12;;;;;;;8.9;80.2;97170;;;;
2023/02/24 16:41:48;;;;;;;16.2;12;;;;;;;8.7;80.8;97150;;;;
2023/02/24 16:51:48;;;;;;;12;7.9;;;;;;;8.7;81.3;97140;;;;
2023/02/24 17:02:48;;;;;;;12;7.9;;;;;;;8.7;81.3;97130;;;;
2023/02/24 17:13:48;;;;;;;12;7.9;;;;;;;8.8;80.8;97130;;;;
2023/02/24 17:23:48;;;;;;;13.3;8.6;;;;;;;8.9;80.4;97140;;;;
2023/02/24 17:33:48;;;;;;;13.3;8.6;;;;;;;8.9;80;97120;;;;
2023/02/24 17:44:48;;;;;;;13.3;8.6;;;;;;;8.9;78.9;97100;;;;
2023/02/24 17:54:48;;;;;;;13.1;10.5;;;;;;;8.8;78.6;97100;;;;
2023/02/24 18:05:48;;;;;;;13.1;10.5;;;;;;;8.9;78.6;97090;;;;
2023/02/24 18:15:48;;;;;;;13.5;10.9;;;;;;;9;79;97070;;;;
2023/02/24 18:25:48;;;;;;;13.5;10.9;;;;;;;9;78.8;97060;;;;
2023/02/24 18:36:49;;;;;;;13.5;10.9;;;;;;;8.9;79;97050;;;;
2023/02/24 18:46:48;;;;;;;19.1;13.4;;;;;;;8.8;78.8;97040;;;;
2023/02/24 18:56:48;;;;;;;19.1;13.4;;;;;;;8.7;79;97030;;;;
2023/02/24 19:07:48;;;;;;;19.1;13.4;;;;;;;8.6;78.8;97010;;;;
2023/02/24 19:17:48;;;;;;;17.7;12.2;;;;;;;8.6;78.8;97000;;;;
2023/02/24 19:27:48;;;;;;;17.7;12.2;;;;;;;8.7;78.7;96980;;;;
2023/02/24 19:37:48;;;;;;;17.7;12.2;;;;;;;8.9;78;96970;;;;
2023/02/24 19:48:48;;;;;;;18.5;11.6;;;;;;;8.9;77.3;96950;;;;
2023/02/24 19:59:48;;;;;;;18.5;11.6;;;;;;;9;76.4;96930;;;;
2023/02/24 20:09:48;;;;;;;18.5;11.6;;;;;;;9;75.5;96920;;;;
2023/02/24 20:20:48;;;;;;;14.4;7.7;;;;;;;9;75.1;96900;;;;
2023/02/24 20:30:48;;;;;;;14.4;7.7;;;;;;;9.1;74.7;96890;;;;
2023/02/24 20:40:49;;;;;;;14.4;7.7;;;;;;;9;74.7;96870;;;;
2023/02/24 20:51:48;;;;;;;10;6.1;;;;;;;8.7;74.7;96830;;;;
2023/02/24 21:02:48;;;;;;;10;6.1;;;;;;;8.5;75.5;96820;;;;
2023/02/24 21:12:49;;;;;;;10;6.1;;;;;;;8.6;75.8;96810;;;;
2023/02/24 21:23:49;;;;;;;11.9;7;;;;;;;8.8;75.1;96800;;;;
2023/02/24 21:34:48;;;;;;;11.9;7;;;;;;;9;74.8;96770;;;;
2023/02/24 21:45:48;;;;;;;11.2;6;;;;;;;9.2;73.2;96740;;;;
2023/02/24 21:56:48;;;;;;;11.2;6;;;;;;;9.2;72.8;96720;;;;
2023/02/24 22:07:48;;;;;;;11.2;6;;;;;;;9.1;73.7;96730;;;;
2023/02/24 22:17:48;;;;;;;11;3.7;;;;;;;8.9;76.1;96730;;;;
2023/02/24 22:27:48;;;;;;;11;3.7;;;;;;;8.7;79;96690;;;;
2023/02/24 22:38:48;;;;;;;11;3.7;;;;;;;8.4;81.8;96710;;;;
2023/02/24 22:48:49;;;;;;;7.7;3.6;;;;;;;8.5;81.3;96750;;;;
2023/02/24 22:58:48;;;;;;;7.7;3.6;;;;;;;8.4;81.7;96710;;;;
2023/02/24 23:08:48;;;;;;;7.7;3.6;;;;;;;8.3;80.7;96690;;;;
2023/02/24 23:18:49;;;;;;;10.1;5.5;;;;;;;8;82.2;96670;;;;
2023/02/24 23:29:48;;;;;;;10.1;5.5;;;;;;;7.6;83.3;96650;;;;
2023/02/24 23:39:48;;;;;;;10.1;5.5;;;;;;;7.6;83.9;96640;;;;
2023/02/24 23:50:49;;;;;;;10;6.3;;;;;;;7.7;83;96660;;;;
